sensor_id;sensor_type;location;lat;lon;timestamp;P1;durP1;ratioP1;P2;durP2;ratioP2
64520;SDS011;50896;46.714;17.322;2024-03-06T00:00:12;33.97;;;20.58;;
64520;SDS011;50896;46.714;17.322;2024-03-06T00:02:39;34.35;;;19.33;;
64520;SDS011;50896;46.714;17.322;2024-03-06T00:05:07;34.10;;;19.42;;
64520;SDS011;50896;46.714;17.322;2024-03-06T00:07:35;37.40;;;20.48;;
64520;SDS011;50896;46.714;17.322;2024-03-06T00:10:02;35.75;;;19.80;;
64520;SDS011;50896;46.714;17.322;2024-03-06T00:12:33;35.58;;;20.05;;
64520;SDS011;50896;46.714;17.322;2024-03-06T00:15:00;39.45;;;21.17;;
64520;SDS011;50896;46.714;17.322;2024-03-06T00:17:28;35.00;;;19.85;;
64520;SDS011;50896;46.714;17.322;2024-03-06T00:19:55;33.83;;;18.92;;
64520;SDS011;50896;46.714;17.322;2024-03-06T00:22:22;33.63;;;19.30;;
64520;SDS011;50896;46.714;17.322;2024-03-06T00:24:50;36.08;;;19.67;;
64520;SDS011;50896;46.714;17.322;2024-03-06T00:27:17;35.97;;;20.70;;
64520;SDS011;50896;46.714;17.322;2024-03-06T00:29:45;38.17;;;21.00;;
64520;SDS011;50896;46.714;17.322;2024-03-06T00:32:11;32.97;;;19.80;;
64520;SDS011;50896;46.714;17.322;2024-03-06T00:34:39;35.47;;;20.90;;
64520;SDS011;50896;46.714;17.322;2024-03-06T00:37:06;36.13;;;20.02;;
64520;SDS011;50896;46.714;17.322;2024-03-06T00:39:32;37.47;;;21.55;;
64520;SDS011;50896;46.714;17.322;2024-03-06T00:42:00;35.00;;;19.85;;
64520;SDS011;50896;46.714;17.322;2024-03-06T00:44:27;34.05;;;19.92;;
64520;SDS011;50896;46.714;17.322;2024-03-06T00:46:57;35.60;;;20.40;;
64520;SDS011;50896;46.714;17.322;2024-03-06T00:49:24;33.22;;;19.65;;
64520;SDS011;50896;46.714;17.322;2024-03-06T00:51:51;34.88;;;19.33;;
64520;SDS011;50896;46.714;17.322;2024-03-06T00:54:17;36.03;;;20.02;;
64520;SDS011;50896;46.714;17.322;2024-03-06T00:56:44;36.15;;;20.77;;
64520;SDS011;50896;46.714;17.322;2024-03-06T00:59:11;38.05;;;20.45;;
64520;SDS011;50896;46.714;17.322;2024-03-06T01:01:39;32.88;;;19.45;;
64520;SDS011;50896;46.714;17.322;2024-03-06T01:04:07;34.78;;;20.25;;
64520;SDS011;50896;46.714;17.322;2024-03-06T01:06:34;36.65;;;21.13;;
64520;SDS011;50896;46.714;17.322;2024-03-06T01:09:01;36.20;;;21.02;;
64520;SDS011;50896;46.714;17.322;2024-03-06T01:11:28;36.28;;;20.30;;
64520;SDS011;50896;46.714;17.322;2024-03-06T01:13:55;36.90;;;20.48;;
64520;SDS011;50896;46.714;17.322;2024-03-06T01:16:22;37.83;;;21.60;;
64520;SDS011;50896;46.714;17.322;2024-03-06T01:18:49;36.95;;;21.35;;
64520;SDS011;50896;46.714;17.322;2024-03-06T01:21:15;39.28;;;21.38;;
64520;SDS011;50896;46.714;17.322;2024-03-06T01:23:42;40.33;;;22.83;;
64520;SDS011;50896;46.714;17.322;2024-03-06T01:26:10;36.95;;;20.80;;
64520;SDS011;50896;46.714;17.322;2024-03-06T01:28:38;37.88;;;21.88;;
64520;SDS011;50896;46.714;17.322;2024-03-06T01:31:05;40.05;;;22.27;;
64520;SDS011;50896;46.714;17.322;2024-03-06T01:33:33;43.70;;;22.80;;
64520;SDS011;50896;46.714;17.322;2024-03-06T01:35:59;38.60;;;21.95;;
64520;SDS011;50896;46.714;17.322;2024-03-06T01:38:26;38.92;;;22.75;;
64520;SDS011;50896;46.714;17.322;2024-03-06T01:40:53;39.67;;;22.63;;
64520;SDS011;50896;46.714;17.322;2024-03-06T01:43:24;39.40;;;23.38;;
64520;SDS011;50896;46.714;17.322;2024-03-06T01:45:53;38.95;;;22.92;;
64520;SDS011;50896;46.714;17.322;2024-03-06T01:48:21;38.30;;;22.20;;
64520;SDS011;50896;46.714;17.322;2024-03-06T01:50:57;42.80;;;22.98;;
64520;SDS011;50896;46.714;17.322;2024-03-06T01:53:27;37.13;;;21.88;;
64520;SDS011;50896;46.714;17.322;2024-03-06T01:55:56;34.20;;;21.02;;
64520;SDS011;50896;46.714;17.322;2024-03-06T01:58:25;40.85;;;22.30;;
64520;SDS011;50896;46.714;17.322;2024-03-06T02:00:52;40.58;;;21.92;;
64520;SDS011;50896;46.714;17.322;2024-03-06T02:03:20;39.83;;;22.08;;
64520;SDS011;50896;46.714;17.322;2024-03-06T02:05:48;40.00;;;23.17;;
64520;SDS011;50896;46.714;17.322;2024-03-06T02:08:15;37.88;;;22.60;;
64520;SDS011;50896;46.714;17.322;2024-03-06T02:10:44;37.92;;;22.25;;
64520;SDS011;50896;46.714;17.322;2024-03-06T02:13:11;40.33;;;23.35;;
64520;SDS011;50896;46.714;17.322;2024-03-06T02:15:39;39.67;;;23.02;;
64520;SDS011;50896;46.714;17.322;2024-03-06T02:18:05;39.58;;;23.75;;
64520;SDS011;50896;46.714;17.322;2024-03-06T02:20:33;40.08;;;23.52;;
64520;SDS011;50896;46.714;17.322;2024-03-06T02:23:01;41.60;;;22.88;;
64520;SDS011;50896;46.714;17.322;2024-03-06T02:25:28;42.40;;;23.27;;
64520;SDS011;50896;46.714;17.322;2024-03-06T02:27:54;39.47;;;22.58;;
64520;SDS011;50896;46.714;17.322;2024-03-06T02:30:21;37.90;;;22.60;;
64520;SDS011;50896;46.714;17.322;2024-03-06T02:32:48;41.25;;;23.73;;
64520;SDS011;50896;46.714;17.322;2024-03-06T02:35:15;46.05;;;23.77;;
64520;SDS011;50896;46.714;17.322;2024-03-06T02:37:42;41.85;;;22.83;;
64520;SDS011;50896;46.714;17.322;2024-03-06T02:40:10;42.17;;;24.33;;
64520;SDS011;50896;46.714;17.322;2024-03-06T02:42:39;42.05;;;24.80;;
64520;SDS011;50896;46.714;17.322;2024-03-06T02:45:06;42.58;;;24.35;;
64520;SDS011;50896;46.714;17.322;2024-03-06T02:47:34;43.22;;;23.30;;
64520;SDS011;50896;46.714;17.322;2024-03-06T02:50:01;42.15;;;24.40;;
64520;SDS011;50896;46.714;17.322;2024-03-06T02:52:28;41.65;;;23.98;;
64520;SDS011;50896;46.714;17.322;2024-03-06T02:54:55;46.45;;;25.27;;
64520;SDS011;50896;46.714;17.322;2024-03-06T02:57:23;46.30;;;25.58;;
64520;SDS011;50896;46.714;17.322;2024-03-06T02:59:52;41.55;;;24.30;;
64520;SDS011;50896;46.714;17.322;2024-03-06T03:02:19;43.97;;;25.60;;
64520;SDS011;50896;46.714;17.322;2024-03-06T03:04:46;42.92;;;23.85;;
64520;SDS011;50896;46.714;17.322;2024-03-06T03:07:13;43.15;;;24.50;;
64520;SDS011;50896;46.714;17.322;2024-03-06T03:09:40;45.35;;;24.90;;
64520;SDS011;50896;46.714;17.322;2024-03-06T03:12:07;43.35;;;24.33;;
64520;SDS011;50896;46.714;17.322;2024-03-06T03:14:33;43.83;;;24.38;;
64520;SDS011;50896;46.714;17.322;2024-03-06T03:17:00;44.92;;;24.10;;
64520;SDS011;50896;46.714;17.322;2024-03-06T03:19:27;44.55;;;24.50;;
64520;SDS011;50896;46.714;17.322;2024-03-06T03:21:54;46.60;;;25.15;;
64520;SDS011;50896;46.714;17.322;2024-03-06T03:24:21;44.08;;;24.63;;
64520;SDS011;50896;46.714;17.322;2024-03-06T03:26:48;41.97;;;24.38;;
64520;SDS011;50896;46.714;17.322;2024-03-06T03:29:15;40.42;;;23.50;;
64520;SDS011;50896;46.714;17.322;2024-03-06T03:31:43;43.70;;;24.70;;
64520;SDS011;50896;46.714;17.322;2024-03-06T03:34:10;40.90;;;23.85;;
64520;SDS011;50896;46.714;17.322;2024-03-06T03:36:42;37.15;;;22.52;;
64520;SDS011;50896;46.714;17.322;2024-03-06T03:39:12;43.00;;;23.58;;
64520;SDS011;50896;46.714;17.322;2024-03-06T03:41:43;36.22;;;20.83;;
64520;SDS011;50896;46.714;17.322;2024-03-06T03:44:13;36.95;;;21.42;;
64520;SDS011;50896;46.714;17.322;2024-03-06T03:46:40;35.67;;;20.98;;
64520;SDS011;50896;46.714;17.322;2024-03-06T03:49:08;40.00;;;22.40;;
64520;SDS011;50896;46.714;17.322;2024-03-06T03:51:36;35.60;;;20.98;;
64520;SDS011;50896;46.714;17.322;2024-03-06T03:54:04;39.22;;;21.35;;
64520;SDS011;50896;46.714;17.322;2024-03-06T03:56:31;37.75;;;21.83;;
64520;SDS011;50896;46.714;17.322;2024-03-06T03:58:58;39.58;;;21.90;;
64520;SDS011;50896;46.714;17.322;2024-03-06T04:01:25;43.65;;;23.55;;
64520;SDS011;50896;46.714;17.322;2024-03-06T04:03:52;38.55;;;22.08;;
64520;SDS011;50896;46.714;17.322;2024-03-06T04:06:19;43.72;;;22.50;;
64520;SDS011;50896;46.714;17.322;2024-03-06T04:08:46;42.08;;;22.88;;
64520;SDS011;50896;46.714;17.322;2024-03-06T04:11:12;43.05;;;23.08;;
64520;SDS011;50896;46.714;17.322;2024-03-06T04:13:39;44.58;;;22.88;;
64520;SDS011;50896;46.714;17.322;2024-03-06T04:16:06;40.20;;;23.05;;
64520;SDS011;50896;46.714;17.322;2024-03-06T04:18:33;36.80;;;21.42;;
64520;SDS011;50896;46.714;17.322;2024-03-06T04:21:04;33.88;;;19.52;;
64520;SDS011;50896;46.714;17.322;2024-03-06T04:23:32;39.00;;;20.48;;
64520;SDS011;50896;46.714;17.322;2024-03-06T04:25:59;35.10;;;20.02;;
64520;SDS011;50896;46.714;17.322;2024-03-06T04:28:27;37.22;;;21.73;;
64520;SDS011;50896;46.714;17.322;2024-03-06T04:30:54;38.60;;;21.13;;
64520;SDS011;50896;46.714;17.322;2024-03-06T04:33:23;39.17;;;20.60;;
64520;SDS011;50896;46.714;17.322;2024-03-06T04:35:50;41.38;;;21.48;;
64520;SDS011;50896;46.714;17.322;2024-03-06T04:38:16;36.80;;;20.73;;
64520;SDS011;50896;46.714;17.322;2024-03-06T04:40:43;43.03;;;23.92;;
64520;SDS011;50896;46.714;17.322;2024-03-06T04:43:11;37.90;;;21.20;;
64520;SDS011;50896;46.714;17.322;2024-03-06T04:45:38;40.38;;;21.95;;
64520;SDS011;50896;46.714;17.322;2024-03-06T04:48:05;40.85;;;22.77;;
64520;SDS011;50896;46.714;17.322;2024-03-06T04:50:32;44.72;;;22.17;;
64520;SDS011;50896;46.714;17.322;2024-03-06T04:52:59;40.58;;;21.48;;
64520;SDS011;50896;46.714;17.322;2024-03-06T04:55:26;40.88;;;22.33;;
64520;SDS011;50896;46.714;17.322;2024-03-06T04:57:53;41.85;;;22.73;;
64520;SDS011;50896;46.714;17.322;2024-03-06T05:00:20;40.45;;;22.45;;
64520;SDS011;50896;46.714;17.322;2024-03-06T05:02:47;38.00;;;21.55;;
64520;SDS011;50896;46.714;17.322;2024-03-06T05:05:33;42.08;;;21.15;;
64520;SDS011;50896;46.714;17.322;2024-03-06T05:08:17;40.40;;;22.67;;
64520;SDS011;50896;46.714;17.322;2024-03-06T05:11:01;39.65;;;21.73;;
64520;SDS011;50896;46.714;17.322;2024-03-06T05:13:46;38.13;;;21.25;;
64520;SDS011;50896;46.714;17.322;2024-03-06T05:16:30;41.30;;;22.17;;
64520;SDS011;50896;46.714;17.322;2024-03-06T05:19:15;42.20;;;23.00;;
64520;SDS011;50896;46.714;17.322;2024-03-06T05:21:59;40.60;;;22.25;;
64520;SDS011;50896;46.714;17.322;2024-03-06T05:24:44;43.85;;;22.25;;
64520;SDS011;50896;46.714;17.322;2024-03-06T05:27:28;39.63;;;22.02;;
64520;SDS011;50896;46.714;17.322;2024-03-06T05:30:13;39.42;;;21.45;;
64520;SDS011;50896;46.714;17.322;2024-03-06T05:32:58;40.25;;;21.38;;
64520;SDS011;50896;46.714;17.322;2024-03-06T05:35:43;41.25;;;22.42;;
64520;SDS011;50896;46.714;17.322;2024-03-06T05:38:27;38.35;;;22.10;;
64520;SDS011;50896;46.714;17.322;2024-03-06T05:41:12;41.40;;;23.10;;
64520;SDS011;50896;46.714;17.322;2024-03-06T05:43:56;38.25;;;21.55;;
64520;SDS011;50896;46.714;17.322;2024-03-06T05:46:41;43.10;;;22.60;;
64520;SDS011;50896;46.714;17.322;2024-03-06T05:49:25;44.10;;;23.63;;
64520;SDS011;50896;46.714;17.322;2024-03-06T05:52:10;47.08;;;23.98;;
64520;SDS011;50896;46.714;17.322;2024-03-06T05:54:54;46.13;;;24.65;;
64520;SDS011;50896;46.714;17.322;2024-03-06T05:57:38;47.65;;;25.55;;
64520;SDS011;50896;46.714;17.322;2024-03-06T06:00:22;49.63;;;25.02;;
64520;SDS011;50896;46.714;17.322;2024-03-06T06:02:49;47.25;;;25.13;;
64520;SDS011;50896;46.714;17.322;2024-03-06T06:05:16;49.90;;;26.00;;
64520;SDS011;50896;46.714;17.322;2024-03-06T06:07:50;55.17;;;29.08;;
64520;SDS011;50896;46.714;17.322;2024-03-06T06:10:17;53.47;;;28.02;;
64520;SDS011;50896;46.714;17.322;2024-03-06T06:12:47;53.85;;;28.17;;
64520;SDS011;50896;46.714;17.322;2024-03-06T06:15:15;49.90;;;28.15;;
64520;SDS011;50896;46.714;17.322;2024-03-06T06:17:42;51.05;;;27.23;;
64520;SDS011;50896;46.714;17.322;2024-03-06T06:20:12;47.63;;;26.38;;
64520;SDS011;50896;46.714;17.322;2024-03-06T06:22:42;52.13;;;26.95;;
64520;SDS011;50896;46.714;17.322;2024-03-06T06:25:09;50.55;;;26.77;;
64520;SDS011;50896;46.714;17.322;2024-03-06T06:27:37;52.92;;;27.40;;
64520;SDS011;50896;46.714;17.322;2024-03-06T06:30:05;50.15;;;27.75;;
64520;SDS011;50896;46.714;17.322;2024-03-06T06:32:33;52.88;;;29.00;;
64520;SDS011;50896;46.714;17.322;2024-03-06T06:35:01;46.75;;;27.90;;
64520;SDS011;50896;46.714;17.322;2024-03-06T06:37:28;54.85;;;28.77;;
64520;SDS011;50896;46.714;17.322;2024-03-06T06:39:55;49.80;;;27.10;;
64520;SDS011;50896;46.714;17.322;2024-03-06T06:42:22;46.17;;;27.02;;
64520;SDS011;50896;46.714;17.322;2024-03-06T06:44:50;48.13;;;27.67;;
64520;SDS011;50896;46.714;17.322;2024-03-06T06:47:17;51.97;;;27.15;;
64520;SDS011;50896;46.714;17.322;2024-03-06T06:49:44;52.63;;;29.77;;
64520;SDS011;50896;46.714;17.322;2024-03-06T06:52:11;51.47;;;29.10;;
64520;SDS011;50896;46.714;17.322;2024-03-06T06:54:38;54.95;;;30.83;;
64520;SDS011;50896;46.714;17.322;2024-03-06T06:57:05;61.53;;;30.73;;
64520;SDS011;50896;46.714;17.322;2024-03-06T06:59:32;50.97;;;30.27;;
64520;SDS011;50896;46.714;17.322;2024-03-06T07:01:59;57.75;;;31.73;;
64520;SDS011;50896;46.714;17.322;2024-03-06T07:04:26;58.45;;;32.00;;
64520;SDS011;50896;46.714;17.322;2024-03-06T07:06:53;58.10;;;31.10;;
64520;SDS011;50896;46.714;17.322;2024-03-06T07:09:20;53.90;;;29.65;;
64520;SDS011;50896;46.714;17.322;2024-03-06T07:11:47;52.53;;;31.50;;
64520;SDS011;50896;46.714;17.322;2024-03-06T07:14:14;54.83;;;31.33;;
64520;SDS011;50896;46.714;17.322;2024-03-06T07:16:43;54.50;;;30.63;;
64520;SDS011;50896;46.714;17.322;2024-03-06T07:19:10;57.63;;;31.55;;
64520;SDS011;50896;46.714;17.322;2024-03-06T07:21:37;56.25;;;30.27;;
64520;SDS011;50896;46.714;17.322;2024-03-06T07:24:05;59.17;;;31.65;;
64520;SDS011;50896;46.714;17.322;2024-03-06T07:26:32;56.55;;;31.38;;
64520;SDS011;50896;46.714;17.322;2024-03-06T07:29:00;56.60;;;30.88;;
64520;SDS011;50896;46.714;17.322;2024-03-06T07:31:28;57.83;;;32.10;;
64520;SDS011;50896;46.714;17.322;2024-03-06T07:33:55;56.45;;;31.55;;
64520;SDS011;50896;46.714;17.322;2024-03-06T07:36:22;56.58;;;31.15;;
64520;SDS011;50896;46.714;17.322;2024-03-06T07:38:49;54.00;;;29.20;;
64520;SDS011;50896;46.714;17.322;2024-03-06T07:41:16;58.42;;;32.00;;
64520;SDS011;50896;46.714;17.322;2024-03-06T07:43:43;60.33;;;31.92;;
64520;SDS011;50896;46.714;17.322;2024-03-06T07:46:10;58.60;;;30.92;;
64520;SDS011;50896;46.714;17.322;2024-03-06T07:48:37;56.60;;;30.95;;
64520;SDS011;50896;46.714;17.322;2024-03-06T07:51:05;56.15;;;32.15;;
64520;SDS011;50896;46.714;17.322;2024-03-06T07:53:32;58.85;;;32.63;;
64520;SDS011;50896;46.714;17.322;2024-03-06T07:55:59;60.90;;;33.80;;
64520;SDS011;50896;46.714;17.322;2024-03-06T07:58:26;57.50;;;31.75;;
64520;SDS011;50896;46.714;17.322;2024-03-06T08:00:53;59.30;;;32.55;;
64520;SDS011;50896;46.714;17.322;2024-03-06T08:03:22;58.20;;;32.70;;
64520;SDS011;50896;46.714;17.322;2024-03-06T08:05:51;59.70;;;32.15;;
64520;SDS011;50896;46.714;17.322;2024-03-06T08:08:21;56.90;;;31.50;;
64520;SDS011;50896;46.714;17.322;2024-03-06T08:10:49;58.15;;;33.67;;
64520;SDS011;50896;46.714;17.322;2024-03-06T08:13:16;56.55;;;31.92;;
64520;SDS011;50896;46.714;17.322;2024-03-06T08:15:45;60.25;;;32.85;;
64520;SDS011;50896;46.714;17.322;2024-03-06T08:18:12;56.97;;;32.40;;
64520;SDS011;50896;46.714;17.322;2024-03-06T08:20:42;62.55;;;32.20;;
64520;SDS011;50896;46.714;17.322;2024-03-06T08:23:09;56.58;;;31.63;;
64520;SDS011;50896;46.714;17.322;2024-03-06T08:25:38;55.38;;;31.63;;
64520;SDS011;50896;46.714;17.322;2024-03-06T08:28:05;59.75;;;32.67;;
64520;SDS011;50896;46.714;17.322;2024-03-06T08:30:32;59.72;;;33.83;;
64520;SDS011;50896;46.714;17.322;2024-03-06T08:33:01;57.42;;;31.73;;
64520;SDS011;50896;46.714;17.322;2024-03-06T08:35:28;53.90;;;30.90;;
64520;SDS011;50896;46.714;17.322;2024-03-06T08:37:56;56.45;;;31.48;;
64520;SDS011;50896;46.714;17.322;2024-03-06T08:40:23;58.25;;;32.38;;
64520;SDS011;50896;46.714;17.322;2024-03-06T08:42:52;60.80;;;32.05;;
64520;SDS011;50896;46.714;17.322;2024-03-06T08:45:19;55.35;;;30.88;;
64520;SDS011;50896;46.714;17.322;2024-03-06T08:47:46;55.90;;;31.40;;
64520;SDS011;50896;46.714;17.322;2024-03-06T08:50:16;56.22;;;30.23;;
64520;SDS011;50896;46.714;17.322;2024-03-06T08:52:44;56.70;;;32.03;;
64520;SDS011;50896;46.714;17.322;2024-03-06T08:55:12;57.17;;;31.45;;
64520;SDS011;50896;46.714;17.322;2024-03-06T08:57:39;61.35;;;33.33;;
64520;SDS011;50896;46.714;17.322;2024-03-06T09:00:07;55.67;;;31.63;;
64520;SDS011;50896;46.714;17.322;2024-03-06T09:02:38;56.83;;;32.13;;
64520;SDS011;50896;46.714;17.322;2024-03-06T09:05:08;56.78;;;31.10;;
64520;SDS011;50896;46.714;17.322;2024-03-06T09:07:37;57.33;;;31.00;;
64520;SDS011;50896;46.714;17.322;2024-03-06T09:12:37;60.40;;;31.15;;
64520;SDS011;50896;46.714;17.322;2024-03-06T09:15:04;56.90;;;31.60;;
64520;SDS011;50896;46.714;17.322;2024-03-06T09:17:34;55.63;;;30.95;;
64520;SDS011;50896;46.714;17.322;2024-03-06T09:20:01;60.20;;;33.20;;
64520;SDS011;50896;46.714;17.322;2024-03-06T09:22:39;55.92;;;29.48;;
64520;SDS011;50896;46.714;17.322;2024-03-06T09:25:06;53.15;;;30.23;;
64520;SDS011;50896;46.714;17.322;2024-03-06T09:27:34;55.03;;;30.40;;
64520;SDS011;50896;46.714;17.322;2024-03-06T09:30:01;51.78;;;30.25;;
64520;SDS011;50896;46.714;17.322;2024-03-06T09:32:29;51.45;;;29.77;;
64520;SDS011;50896;46.714;17.322;2024-03-06T09:34:58;50.63;;;29.10;;
64520;SDS011;50896;46.714;17.322;2024-03-06T09:37:25;52.58;;;30.33;;
64520;SDS011;50896;46.714;17.322;2024-03-06T09:39:52;51.95;;;30.15;;
64520;SDS011;50896;46.714;17.322;2024-03-06T09:42:19;54.13;;;29.38;;
64520;SDS011;50896;46.714;17.322;2024-03-06T09:44:46;50.42;;;28.83;;
64520;SDS011;50896;46.714;17.322;2024-03-06T09:47:14;51.92;;;29.50;;
64520;SDS011;50896;46.714;17.322;2024-03-06T09:49:51;53.92;;;29.23;;
64520;SDS011;50896;46.714;17.322;2024-03-06T09:52:20;47.60;;;28.65;;
64520;SDS011;50896;46.714;17.322;2024-03-06T09:54:52;56.30;;;30.13;;
64520;SDS011;50896;46.714;17.322;2024-03-06T09:57:20;50.67;;;28.92;;
64520;SDS011;50896;46.714;17.322;2024-03-06T09:59:47;51.95;;;29.80;;
64520;SDS011;50896;46.714;17.322;2024-03-06T10:02:19;54.80;;;29.85;;
64520;SDS011;50896;46.714;17.322;2024-03-06T10:05:04;52.17;;;30.42;;
64520;SDS011;50896;46.714;17.322;2024-03-06T10:07:32;49.55;;;29.30;;
64520;SDS011;50896;46.714;17.322;2024-03-06T10:09:59;48.20;;;29.17;;
64520;SDS011;50896;46.714;17.322;2024-03-06T10:12:27;48.25;;;28.27;;
64520;SDS011;50896;46.714;17.322;2024-03-06T10:14:56;48.63;;;29.23;;
64520;SDS011;50896;46.714;17.322;2024-03-06T10:17:23;51.08;;;28.98;;
64520;SDS011;50896;46.714;17.322;2024-03-06T10:19:54;53.97;;;30.02;;
64520;SDS011;50896;46.714;17.322;2024-03-06T10:22:21;47.53;;;28.75;;
64520;SDS011;50896;46.714;17.322;2024-03-06T10:24:54;48.95;;;28.85;;
64520;SDS011;50896;46.714;17.322;2024-03-06T10:27:23;47.70;;;27.85;;
64520;SDS011;50896;46.714;17.322;2024-03-06T10:30:03;48.72;;;27.58;;
64520;SDS011;50896;46.714;17.322;2024-03-06T10:32:32;47.30;;;26.88;;
64520;SDS011;50896;46.714;17.322;2024-03-06T10:35:00;46.25;;;27.83;;
64520;SDS011;50896;46.714;17.322;2024-03-06T10:37:28;45.17;;;27.25;;
64520;SDS011;50896;46.714;17.322;2024-03-06T10:39:55;49.90;;;28.42;;
64520;SDS011;50896;46.714;17.322;2024-03-06T10:42:25;47.63;;;27.27;;
64520;SDS011;50896;46.714;17.322;2024-03-06T10:44:55;47.58;;;26.85;;
64520;SDS011;50896;46.714;17.322;2024-03-06T10:47:25;43.75;;;26.08;;
64520;SDS011;50896;46.714;17.322;2024-03-06T10:49:54;43.50;;;25.97;;
64520;SDS011;50896;46.714;17.322;2024-03-06T10:52:26;41.50;;;25.25;;
64520;SDS011;50896;46.714;17.322;2024-03-06T10:54:54;38.92;;;24.27;;
64520;SDS011;50896;46.714;17.322;2024-03-06T10:57:25;43.60;;;25.75;;
64520;SDS011;50896;46.714;17.322;2024-03-06T10:59:52;38.47;;;24.33;;
64520;SDS011;50896;46.714;17.322;2024-03-06T11:02:19;40.40;;;24.00;;
64520;SDS011;50896;46.714;17.322;2024-03-06T11:04:49;43.97;;;24.88;;
64520;SDS011;50896;46.714;17.322;2024-03-06T11:07:18;44.08;;;26.73;;
64520;SDS011;50896;46.714;17.322;2024-03-06T11:09:45;43.55;;;26.10;;
64520;SDS011;50896;46.714;17.322;2024-03-06T11:15:15;43.05;;;25.88;;
64520;SDS011;50896;46.714;17.322;2024-03-06T11:17:43;40.60;;;24.45;;
64520;SDS011;50896;46.714;17.322;2024-03-06T11:20:16;44.60;;;26.17;;
64520;SDS011;50896;46.714;17.322;2024-03-06T11:28:35;38.85;;;24.15;;
64520;SDS011;50896;46.714;17.322;2024-03-06T11:31:08;40.42;;;24.90;;
64520;SDS011;50896;46.714;17.322;2024-03-06T11:33:42;41.97;;;25.38;;
64520;SDS011;50896;46.714;17.322;2024-03-06T11:36:14;41.08;;;23.92;;
64520;SDS011;50896;46.714;17.322;2024-03-06T11:41:20;37.78;;;22.42;;
64520;SDS011;50896;46.714;17.322;2024-03-06T11:43:52;40.35;;;23.58;;
64520;SDS011;50896;46.714;17.322;2024-03-06T11:46:22;42.53;;;24.83;;
64520;SDS011;50896;46.714;17.322;2024-03-06T11:49:14;36.78;;;23.48;;
64520;SDS011;50896;46.714;17.322;2024-03-06T11:51:52;39.40;;;23.38;;
64520;SDS011;50896;46.714;17.322;2024-03-06T11:54:20;39.78;;;24.00;;
64520;SDS011;50896;46.714;17.322;2024-03-06T11:56:51;39.13;;;23.67;;
64520;SDS011;50896;46.714;17.322;2024-03-06T11:59:21;38.60;;;23.55;;
64520;SDS011;50896;46.714;17.322;2024-03-06T12:01:52;34.65;;;20.75;;
64520;SDS011;50896;46.714;17.322;2024-03-06T12:04:19;32.85;;;20.88;;
64520;SDS011;50896;46.714;17.322;2024-03-06T12:06:48;33.97;;;21.58;;
64520;SDS011;50896;46.714;17.322;2024-03-06T12:09:15;36.15;;;23.25;;
64520;SDS011;50896;46.714;17.322;2024-03-06T12:11:43;35.08;;;21.48;;
64520;SDS011;50896;46.714;17.322;2024-03-06T12:14:14;34.03;;;21.05;;
64520;SDS011;50896;46.714;17.322;2024-03-06T12:16:44;37.92;;;22.33;;
64520;SDS011;50896;46.714;17.322;2024-03-06T12:19:22;36.13;;;22.23;;
64520;SDS011;50896;46.714;17.322;2024-03-06T12:21:50;38.58;;;23.20;;
64520;SDS011;50896;46.714;17.322;2024-03-06T12:24:17;38.67;;;22.98;;
64520;SDS011;50896;46.714;17.322;2024-03-06T12:26:57;34.97;;;22.20;;
64520;SDS011;50896;46.714;17.322;2024-03-06T12:29:27;40.28;;;24.25;;
64520;SDS011;50896;46.714;17.322;2024-03-06T12:31:55;41.30;;;23.60;;
64520;SDS011;50896;46.714;17.322;2024-03-06T12:34:23;32.35;;;20.65;;
64520;SDS011;50896;46.714;17.322;2024-03-06T12:36:50;32.53;;;20.25;;
64520;SDS011;50896;46.714;17.322;2024-03-06T12:39:17;35.30;;;21.17;;
64520;SDS011;50896;46.714;17.322;2024-03-06T12:41:47;34.65;;;22.50;;
64520;SDS011;50896;46.714;17.322;2024-03-06T12:44:14;34.50;;;21.30;;
64520;SDS011;50896;46.714;17.322;2024-03-06T12:46:41;38.67;;;22.70;;
64520;SDS011;50896;46.714;17.322;2024-03-06T12:49:08;34.08;;;21.55;;
64520;SDS011;50896;46.714;17.322;2024-03-06T12:51:35;32.60;;;20.35;;
64520;SDS011;50896;46.714;17.322;2024-03-06T12:54:02;34.40;;;20.83;;
64520;SDS011;50896;46.714;17.322;2024-03-06T12:56:30;37.13;;;21.88;;
64520;SDS011;50896;46.714;17.322;2024-03-06T12:58:57;44.08;;;26.20;;
64520;SDS011;50896;46.714;17.322;2024-03-06T13:01:23;33.17;;;20.05;;
64520;SDS011;50896;46.714;17.322;2024-03-06T13:03:50;35.47;;;21.50;;
64520;SDS011;50896;46.714;17.322;2024-03-06T13:06:17;63.13;;;38.13;;
64520;SDS011;50896;46.714;17.322;2024-03-06T13:08:44;48.47;;;28.80;;
64520;SDS011;50896;46.714;17.322;2024-03-06T13:11:11;52.58;;;28.73;;
64520;SDS011;50896;46.714;17.322;2024-03-06T13:13:38;32.17;;;19.38;;
64520;SDS011;50896;46.714;17.322;2024-03-06T13:16:05;36.60;;;20.83;;
64520;SDS011;50896;46.714;17.322;2024-03-06T13:18:36;30.15;;;18.77;;
64520;SDS011;50896;46.714;17.322;2024-03-06T13:21:03;31.23;;;19.20;;
64520;SDS011;50896;46.714;17.322;2024-03-06T13:23:30;32.38;;;18.58;;
64520;SDS011;50896;46.714;17.322;2024-03-06T13:25:57;30.60;;;19.27;;
64520;SDS011;50896;46.714;17.322;2024-03-06T13:28:25;30.65;;;19.38;;
64520;SDS011;50896;46.714;17.322;2024-03-06T13:30:52;30.38;;;18.88;;
64520;SDS011;50896;46.714;17.322;2024-03-06T13:33:19;32.83;;;19.42;;
64520;SDS011;50896;46.714;17.322;2024-03-06T13:35:46;30.85;;;18.52;;
64520;SDS011;50896;46.714;17.322;2024-03-06T13:38:13;29.70;;;17.92;;
64520;SDS011;50896;46.714;17.322;2024-03-06T13:40:40;29.90;;;18.70;;
64520;SDS011;50896;46.714;17.322;2024-03-06T13:43:06;31.50;;;19.77;;
64520;SDS011;50896;46.714;17.322;2024-03-06T13:45:34;31.92;;;18.98;;
64520;SDS011;50896;46.714;17.322;2024-03-06T13:48:01;30.88;;;18.13;;
64520;SDS011;50896;46.714;17.322;2024-03-06T13:50:28;31.20;;;18.58;;
64520;SDS011;50896;46.714;17.322;2024-03-06T13:52:55;28.58;;;18.20;;
64520;SDS011;50896;46.714;17.322;2024-03-06T13:55:22;27.92;;;17.88;;
64520;SDS011;50896;46.714;17.322;2024-03-06T13:57:49;26.80;;;18.13;;
64520;SDS011;50896;46.714;17.322;2024-03-06T14:00:16;35.15;;;18.48;;
64520;SDS011;50896;46.714;17.322;2024-03-06T14:02:45;28.80;;;17.23;;
64520;SDS011;50896;46.714;17.322;2024-03-06T14:05:13;28.83;;;17.85;;
64520;SDS011;50896;46.714;17.322;2024-03-06T14:07:41;28.67;;;18.10;;
64520;SDS011;50896;46.714;17.322;2024-03-06T14:10:08;30.10;;;18.17;;
64520;SDS011;50896;46.714;17.322;2024-03-06T14:12:37;31.97;;;19.87;;
64520;SDS011;50896;46.714;17.322;2024-03-06T14:15:05;31.80;;;19.17;;
64520;SDS011;50896;46.714;17.322;2024-03-06T14:17:35;31.00;;;19.45;;
64520;SDS011;50896;46.714;17.322;2024-03-06T14:20:02;31.35;;;19.67;;
64520;SDS011;50896;46.714;17.322;2024-03-06T14:22:30;31.70;;;19.73;;
64520;SDS011;50896;46.714;17.322;2024-03-06T14:24:57;29.10;;;18.08;;
64520;SDS011;50896;46.714;17.322;2024-03-06T14:27:24;30.52;;;19.25;;
64520;SDS011;50896;46.714;17.322;2024-03-06T14:29:51;34.03;;;19.13;;
64520;SDS011;50896;46.714;17.322;2024-03-06T14:32:20;32.20;;;19.10;;